Terminal Aerodrome Forecast
Issued by NWS Miami, FL

Home | Current Version | Previous Version | Text Only | Print | Product List | Glossary On
Versions: 1 2 3 4 5 6 7 8 9 10 11 12 13 14 15 16 17 18 19 20 21 22 23 24 25 26 27 28 29 30 31 32 33 34 35 36 37 38 39 40 41 42 43 44 45 46 47 48 49 50
000
FTUS42 KMFL 231504 AAB
TAFAPF
TAF AMD
KAPF 231504Z 2315/2412 11007KT P6SM SCT020
      TEMPO 2315/2316 BKN020
     FM231800 27008KT P6SM SCT030 BKN050
      TEMPO 2319/2322 VRB15G25KT 4SM TSRA BKN025CB
     FM240000 10005KT P6SM FEW035 BKN070
     FM240300 06004KT P6SM FEW025 SCT250=

USA.gov is the U.S. government's official web portal to all federal, state and local government web resources and services.